createdAt,value
2017-07-29T00:01:04.059Z,100760.13
2017-07-29T00:03:31.986Z,100766.42
2017-07-29T00:06:00.171Z,100770.02
2017-07-29T00:08:28.497Z,100764.80
2017-07-29T00:10:56.424Z,100770.58
2017-07-29T00:13:25.092Z,100770.61
2017-07-29T00:15:52.999Z,100774.47
2017-07-29T00:18:20.938Z,100779.47
2017-07-29T00:20:49.504Z,100781.55
2017-07-29T00:23:17.415Z,100777.15
2017-07-29T00:25:45.325Z,100771.92
2017-07-29T00:28:13.416Z,100779.37
2017-07-29T00:30:41.328Z,100778.39
2017-07-29T00:33:09.375Z,100772.31
2017-07-29T00:35:37.934Z,100768.02
2017-07-29T00:38:05.868Z,100768.89
2017-07-29T00:40:33.800Z,100763.26
2017-07-29T00:43:02.312Z,100761.09
2017-07-29T00:45:30.326Z,100764.30
2017-07-29T00:47:58.256Z,100766.50
2017-07-29T00:50:26.485Z,100771.33
2017-07-29T00:52:54.394Z,100766.55
2017-07-29T00:55:23.031Z,100766.91
2017-07-29T00:57:51.309Z,100766.29
2017-07-29T01:00:19.210Z,100767.28
2017-07-29T01:02:47.530Z,100768.24
2017-07-29T01:05:15.936Z,100772.07
2017-07-29T01:07:44.014Z,100774.05
2017-07-29T01:10:11.933Z,100774.00
2017-07-29T01:12:40.046Z,100763.47
2017-07-29T01:15:07.967Z,100772.04
2017-07-29T01:17:35.870Z,100767.19
2017-07-29T01:20:03.975Z,100768.35
2017-07-29T01:22:32.298Z,100774.97
2017-07-29T01:25:00.209Z,100773.38
2017-07-29T01:27:28.342Z,100771.20
2017-07-29T01:29:56.271Z,100766.66
2017-07-29T01:32:24.596Z,100768.73
2017-07-29T01:34:52.955Z,100763.72
2017-07-29T01:37:20.894Z,100765.70
2017-07-29T01:39:49.215Z,100766.09
2017-07-29T01:42:17.355Z,100765.20
2017-07-29T01:44:45.671Z,100770.17
2017-07-29T01:47:13.585Z,100766.52
2017-07-29T01:49:41.811Z,100765.50
2017-07-29T01:52:09.730Z,100756.25
2017-07-29T01:54:37.656Z,100750.13
2017-07-29T01:57:05.771Z,100751.22
2017-07-29T01:59:33.688Z,100749.05
2017-07-29T02:02:01.626Z,100744.20
2017-07-29T02:04:29.892Z,100743.72
2017-07-29T02:06:58.042Z,100746.82
2017-07-29T02:09:25.956Z,100749.92
2017-07-29T02:11:54.086Z,100748.55
2017-07-29T02:14:22.000Z,100746.94
2017-07-29T02:16:49.945Z,100744.77
2017-07-29T02:19:18.627Z,100741.53
2017-07-29T02:21:46.552Z,100745.48
2017-07-29T02:24:14.465Z,100744.06
2017-07-29T02:26:42.734Z,100751.23
2017-07-29T02:29:10.659Z,100749.45
2017-07-29T02:31:38.584Z,100756.14
2017-07-29T02:34:07.193Z,100757.85
2017-07-29T02:36:35.102Z,100752.30
2017-07-29T02:39:03.032Z,100751.61
2017-07-29T02:41:31.131Z,100748.23
2017-07-29T02:43:59.036Z,100743.25
2017-07-29T02:46:26.965Z,100746.91
2017-07-29T02:48:55.195Z,100752.50
2017-07-29T02:51:23.125Z,100752.51
2017-07-29T02:53:51.033Z,100758.45
2017-07-29T02:56:19.253Z,100757.47
2017-07-29T02:58:47.173Z,100752.73
2017-07-29T03:01:15.087Z,100745.72
2017-07-29T03:03:43.234Z,100746.77
2017-07-29T03:06:11.547Z,100751.81
2017-07-29T03:08:39.728Z,100752.02
2017-07-29T03:11:07.888Z,100751.56
2017-07-29T03:13:35.798Z,100747.13
2017-07-29T03:16:03.713Z,100743.83
2017-07-29T03:18:32.055Z,100747.59
2017-07-29T03:20:59.970Z,100745.86
2017-07-29T03:23:27.883Z,100748.27
2017-07-29T03:25:56.066Z,100750.83
2017-07-29T03:28:23.976Z,100745.87
2017-07-29T03:30:51.884Z,100744.95
2017-07-29T03:33:20.185Z,100746.98
2017-07-29T03:35:48.093Z,100749.42
2017-07-29T03:38:16.021Z,100749.39
2017-07-29T03:40:44.196Z,100745.01
2017-07-29T03:43:12.108Z,100747.75
2017-07-29T03:45:40.037Z,100751.29
2017-07-29T03:48:08.539Z,100758.59
2017-07-29T03:50:36.840Z,100753.67
2017-07-29T03:53:04.755Z,100754.08
2017-07-29T03:55:33.001Z,100751.95
2017-07-29T03:58:00.932Z,100760.34
2017-07-29T04:00:29.231Z,100760.31
2017-07-29T04:02:57.356Z,100758.06
2017-07-29T04:05:25.262Z,100750.52
2017-07-29T04:07:53.452Z,100746.98
2017-07-29T04:10:21.774Z,100740.64
2017-07-29T04:12:50.208Z,100743.76
2017-07-29T04:15:18.110Z,100745.91
2017-07-29T04:17:46.418Z,100728.54
2017-07-29T04:20:14.376Z,100726.37
2017-07-29T04:22:42.294Z,100727.49
2017-07-29T04:25:10.419Z,100723.29
2017-07-29T04:27:38.319Z,100727.42
2017-07-29T04:30:06.249Z,100727.06
2017-07-29T04:32:34.535Z,100738.25
2017-07-29T04:35:02.468Z,100737.04
2017-07-29T04:37:30.372Z,100726.03
2017-07-29T04:39:58.480Z,100715.56
2017-07-29T04:42:26.401Z,100716.26
2017-07-29T04:44:54.313Z,100727.12
2017-07-29T04:47:22.454Z,100730.90
2017-07-29T04:49:50.359Z,100751.51
2017-07-29T04:52:18.267Z,100748.93
2017-07-29T04:54:46.520Z,100758.31
2017-07-29T04:57:14.438Z,100763.73
2017-07-29T04:59:42.340Z,100763.59
2017-07-29T05:02:10.594Z,100767.91
2017-07-29T05:04:38.499Z,100768.05
2017-07-29T05:07:06.406Z,100769.47
2017-07-29T05:09:34.707Z,100767.48
2017-07-29T05:12:03.223Z,100763.52
2017-07-29T05:14:31.153Z,100759.51
2017-07-29T05:16:59.430Z,100757.23
2017-07-29T05:19:27.351Z,100759.17
2017-07-29T05:21:55.270Z,100755.87
2017-07-29T05:24:23.449Z,100763.91
2017-07-29T05:26:51.351Z,100765.45
2017-07-29T05:29:19.258Z,100764.81
2017-07-29T05:31:47.356Z,100755.31
2017-07-29T05:34:15.671Z,100753.17
2017-07-29T05:36:43.586Z,100756.07
2017-07-29T05:39:11.698Z,100756.78
2017-07-29T05:41:40.011Z,100753.91
2017-07-29T05:44:07.924Z,100751.27
2017-07-29T05:46:36.192Z,100755.67
2017-07-29T05:49:04.126Z,100758.93
2017-07-29T05:51:32.140Z,100747.16
2017-07-29T05:54:00.266Z,100750.73
2017-07-29T05:56:28.185Z,100743.30
2017-07-29T05:58:56.508Z,100743.67
2017-07-29T06:01:24.736Z,100737.22
2017-07-29T06:03:52.656Z,100727.86
2017-07-29T06:06:20.578Z,100717.56
2017-07-29T06:08:48.736Z,100731.83
2017-07-29T06:11:16.648Z,100734.42
2017-07-29T06:13:44.863Z,100745.43
2017-07-29T06:16:13.183Z,100748.19
2017-07-29T06:18:41.496Z,100755.08
2017-07-29T06:21:09.411Z,100758.17
2017-07-29T06:23:37.597Z,100750.38
2017-07-29T06:26:05.508Z,100759.97
2017-07-29T06:28:33.410Z,100748.93
2017-07-29T06:31:01.601Z,100749.31
2017-07-29T06:33:29.517Z,100740.31
2017-07-29T06:35:57.428Z,100748.26
2017-07-29T06:38:25.606Z,100745.99
2017-07-29T06:40:53.511Z,100744.83
2017-07-29T06:43:21.447Z,100742.63
2017-07-29T06:45:49.615Z,100738.77
2017-07-29T06:48:17.527Z,100732.42
2017-07-29T06:50:45.438Z,100736.31
2017-07-29T06:53:13.537Z,100735.09
2017-07-29T06:55:41.439Z,100738.33
2017-07-29T06:58:09.377Z,100740.52
2017-07-29T07:00:37.540Z,100737.15
2017-07-29T07:03:05.462Z,100737.74
2017-07-29T07:05:33.384Z,100733.35
2017-07-29T07:08:01.480Z,100735.16
2017-07-29T07:10:29.803Z,100737.89
2017-07-29T07:12:57.701Z,100741.25
2017-07-29T07:15:26.053Z,100736.71
2017-07-29T07:17:53.958Z,100738.56
2017-07-29T07:20:21.875Z,100732.00
2017-07-29T07:22:49.992Z,100729.67
2017-07-29T07:25:17.894Z,100737.95
2017-07-29T07:27:45.810Z,100732.80
2017-07-29T07:30:14.020Z,100732.90
2017-07-29T07:32:42.334Z,100737.22
2017-07-29T07:35:10.306Z,100733.73
2017-07-29T07:37:38.429Z,100733.64
2017-07-29T07:40:06.338Z,100733.61
2017-07-29T07:42:34.252Z,100738.72
2017-07-29T07:45:02.461Z,100738.25
2017-07-29T07:47:30.764Z,100727.42
2017-07-29T07:49:58.680Z,100733.55
2017-07-29T07:52:26.817Z,100730.31
2017-07-29T07:54:54.733Z,100735.77
2017-07-29T07:57:22.669Z,100723.50
2017-07-29T07:59:50.977Z,100722.86
2017-07-29T08:02:18.898Z,100722.23
2017-07-29T08:04:46.814Z,100707.98
2017-07-29T08:07:14.918Z,100706.45
2017-07-29T08:09:43.212Z,100699.09
2017-07-29T08:12:11.128Z,100705.38
2017-07-29T08:14:39.316Z,100705.61
2017-07-29T08:17:07.476Z,100698.98
2017-07-29T08:19:35.388Z,100697.54
2017-07-29T08:22:03.544Z,100695.45
2017-07-29T08:24:31.838Z,100693.16
2017-07-29T08:26:59.735Z,100690.59
2017-07-29T08:29:27.830Z,100680.72
2017-07-29T08:31:55.742Z,100674.45
2017-07-29T08:34:24.065Z,100682.76
2017-07-29T08:36:51.984Z,100686.58
2017-07-29T08:39:20.352Z,100678.80
2017-07-29T08:41:48.263Z,100673.13
2017-07-29T08:44:16.184Z,100683.59
2017-07-29T08:46:44.884Z,100682.70
2017-07-29T08:49:13.205Z,100681.16
2017-07-29T08:51:41.208Z,100683.22
2017-07-29T08:54:09.133Z,100687.38
2017-07-29T08:56:37.036Z,100686.75
2017-07-29T08:59:04.954Z,100686.16
2017-07-29T09:01:32.871Z,100679.45
2017-07-29T09:04:01.170Z,100669.94
2017-07-29T09:06:29.094Z,100672.95
2017-07-29T09:08:57.016Z,100677.61
2017-07-29T09:11:24.927Z,100676.84
2017-07-29T09:13:53.603Z,100677.43
2017-07-29T09:16:21.536Z,100683.63
2017-07-29T09:18:49.456Z,100682.24
2017-07-29T09:21:17.371Z,100680.44
2017-07-29T09:23:45.279Z,100674.78
2017-07-29T09:26:13.225Z,100680.72
2017-07-29T09:28:41.557Z,100678.63
2017-07-29T09:31:09.888Z,100673.13
2017-07-29T09:33:38.195Z,100670.59
2017-07-29T09:36:06.208Z,100679.87
2017-07-29T09:38:34.167Z,100677.19
2017-07-29T09:41:02.095Z,100684.41
2017-07-29T09:43:30.073Z,100675.03
2017-07-29T09:45:57.998Z,100669.06
2017-07-29T09:48:26.059Z,100674.53
2017-07-29T09:50:53.985Z,100672.08
2017-07-29T09:53:21.913Z,100675.10
2017-07-29T09:55:50.247Z,100672.84
2017-07-29T09:58:18.181Z,100660.67
2017-07-29T10:00:46.120Z,100656.21
2017-07-29T10:03:14.033Z,100643.48
2017-07-29T10:05:41.973Z,100658.72
2017-07-29T10:08:10.277Z,100645.05
2017-07-29T10:10:38.517Z,100651.92
2017-07-29T10:13:06.437Z,100654.65
2017-07-29T10:15:34.352Z,100651.34
2017-07-29T10:18:02.992Z,100642.73
2017-07-29T10:20:30.916Z,100643.95
2017-07-29T10:22:59.236Z,100642.94
2017-07-29T10:25:27.161Z,100644.41
2017-07-29T10:27:55.727Z,100635.76
2017-07-29T10:30:23.634Z,100644.03
2017-07-29T10:32:51.552Z,100653.50
2017-07-29T10:35:19.487Z,100644.70
2017-07-29T10:37:47.403Z,100646.52
2017-07-29T10:40:15.328Z,100645.30
2017-07-29T10:42:43.232Z,100635.84
2017-07-29T10:45:11.153Z,100621.29
2017-07-29T10:47:39.094Z,100628.45
2017-07-29T10:50:07.556Z,100628.27
2017-07-29T10:52:35.496Z,100627.14
2017-07-29T10:55:03.513Z,100627.67
2017-07-29T10:57:31.462Z,100629.14
2017-07-29T10:59:59.354Z,100631.05
2017-07-29T11:02:27.757Z,100622.78
2017-07-29T11:04:55.692Z,100629.91
2017-07-29T11:07:23.601Z,100630.13
2017-07-29T11:09:51.743Z,100624.09
2017-07-29T11:12:20.067Z,100620.63
2017-07-29T11:14:47.983Z,100624.52
2017-07-29T11:17:15.904Z,100622.78
2017-07-29T11:19:43.822Z,100622.05
2017-07-29T11:22:11.744Z,100633.45
2017-07-29T11:24:39.656Z,100632.44
2017-07-29T11:27:07.575Z,100621.55
2017-07-29T11:29:35.484Z,100632.49
2017-07-29T11:32:04.018Z,100623.37
2017-07-29T11:34:31.927Z,100628.69
2017-07-29T11:36:59.834Z,100625.09
2017-07-29T11:39:28.157Z,100612.83
2017-07-29T11:41:56.070Z,100603.58
2017-07-29T11:44:23.999Z,100604.39
2017-07-29T11:46:51.950Z,100611.22
2017-07-29T11:49:19.880Z,100606.92
2017-07-29T11:51:47.789Z,100604.10
2017-07-29T11:54:15.718Z,100602.82
2017-07-29T11:56:44.102Z,100597.68
2017-07-29T11:59:12.562Z,100610.31
2017-07-29T12:01:40.472Z,100614.44
2017-07-29T12:04:08.408Z,100611.55
2017-07-29T12:06:36.328Z,100611.99
2017-07-29T12:09:04.262Z,100614.66
2017-07-29T12:11:32.871Z,100609.91
2017-07-29T12:14:00.767Z,100619.07
2017-07-29T12:16:28.695Z,100614.67
2017-07-29T12:18:56.999Z,100613.02
2017-07-29T12:21:24.932Z,100603.34
2017-07-29T12:23:53.264Z,100600.47
2017-07-29T12:26:21.163Z,100608.24
2017-07-29T12:28:49.089Z,100607.67
2017-07-29T12:31:17.020Z,100589.70
2017-07-29T12:33:45.506Z,100599.59
2017-07-29T12:36:13.827Z,100597.86
2017-07-29T12:38:41.726Z,100599.60
2017-07-29T12:41:09.660Z,100594.77
2017-07-29T12:43:37.654Z,100598.03
2017-07-29T12:46:05.574Z,100597.83
2017-07-29T12:48:33.499Z,100602.45
2017-07-29T12:51:01.578Z,100595.09
2017-07-29T12:53:29.495Z,100594.34
2017-07-29T12:55:57.416Z,100601.20
2017-07-29T12:58:25.351Z,100607.03
2017-07-29T13:00:53.259Z,100605.30
2017-07-29T13:03:21.176Z,100600.92
2017-07-29T13:05:49.084Z,100605.88
2017-07-29T13:08:17.390Z,100605.12
2017-07-29T13:10:45.713Z,100601.94
2017-07-29T13:13:14.349Z,100594.92
2017-07-29T13:15:42.679Z,100596.07
2017-07-29T13:18:10.584Z,100601.02
2017-07-29T13:20:38.497Z,100600.98
2017-07-29T13:23:06.418Z,100602.31
2017-07-29T13:25:34.336Z,100600.63
2017-07-29T13:28:02.346Z,100605.47
2017-07-29T13:30:30.440Z,100599.16
2017-07-29T13:32:58.753Z,100603.67
2017-07-29T13:35:26.670Z,100603.89
2017-07-29T13:37:54.595Z,100609.89
2017-07-29T13:40:22.520Z,100602.55
2017-07-29T13:42:50.441Z,100599.28
2017-07-29T13:45:18.347Z,100597.87
2017-07-29T13:47:46.282Z,100590.86
2017-07-29T13:50:14.212Z,100588.84
2017-07-29T13:52:42.534Z,100598.30
2017-07-29T13:55:10.431Z,100592.82
2017-07-29T13:57:38.516Z,100596.91
2017-07-29T14:00:06.443Z,100599.04
2017-07-29T14:02:34.451Z,100600.28
2017-07-29T14:05:02.470Z,100593.61
2017-07-29T14:07:30.378Z,100600.83
2017-07-29T14:09:58.287Z,100597.00
2017-07-29T14:12:26.216Z,100595.09
2017-07-29T14:14:54.149Z,100593.13
2017-07-29T14:17:22.062Z,100600.80
2017-07-29T14:19:50.131Z,100597.77
2017-07-29T14:22:18.053Z,100595.73
2017-07-29T14:24:46.025Z,100601.27
2017-07-29T14:27:14.058Z,100589.21
2017-07-29T14:29:42.364Z,100591.46
2017-07-29T14:32:10.286Z,100592.39
2017-07-29T14:34:38.195Z,100591.46
2017-07-29T14:37:06.123Z,100585.92
2017-07-29T14:39:34.035Z,100581.64
2017-07-29T14:42:01.972Z,100587.76
2017-07-29T14:44:29.892Z,100581.32
2017-07-29T14:46:58.536Z,100590.05
2017-07-29T14:49:26.856Z,100586.39
2017-07-29T14:51:54.987Z,100582.38
2017-07-29T14:54:23.300Z,100588.92
2017-07-29T14:56:51.221Z,100591.64
2017-07-29T14:59:19.152Z,100593.36
2017-07-29T15:01:47.059Z,100592.99
2017-07-29T15:04:15.068Z,100587.09
2017-07-29T15:06:42.972Z,100587.54
2017-07-29T15:09:11.058Z,100584.59
2017-07-29T15:11:38.963Z,100594.80
2017-07-29T15:14:07.264Z,100599.86
2017-07-29T15:16:35.192Z,100598.62
2017-07-29T15:19:03.116Z,100591.59
2017-07-29T15:21:31.065Z,100593.08
2017-07-29T15:23:59.282Z,100578.81
2017-07-29T15:26:27.363Z,100589.89
2017-07-29T15:28:55.276Z,100592.30
2017-07-29T15:31:23.183Z,100596.50
2017-07-29T15:33:51.107Z,100592.41
2017-07-29T15:36:19.411Z,100601.62
2017-07-29T15:38:47.368Z,100598.30
2017-07-29T15:41:15.295Z,100591.14
2017-07-29T15:43:43.213Z,100594.25
2017-07-29T15:46:11.114Z,100580.38
2017-07-29T15:48:39.194Z,100589.66
2017-07-29T15:51:07.098Z,100594.38
2017-07-29T15:53:36.317Z,100587.77
2017-07-29T15:56:04.230Z,100583.13
2017-07-29T15:58:33.029Z,100594.69
2017-07-29T16:01:00.961Z,100592.98
2017-07-29T16:03:28.870Z,100589.94
2017-07-29T16:05:56.790Z,100592.31
2017-07-29T16:08:24.701Z,100594.30
2017-07-29T16:10:52.989Z,100593.32
2017-07-29T16:13:20.948Z,100585.84
2017-07-29T16:15:48.871Z,100593.23
2017-07-29T16:18:16.809Z,100591.85
2017-07-29T16:20:45.145Z,100591.68
2017-07-29T16:23:13.073Z,100604.27
2017-07-29T16:25:41.020Z,100601.46
2017-07-29T16:28:10.078Z,100598.91
2017-07-29T16:30:38.088Z,100599.11
2017-07-29T16:33:06.396Z,100598.41
2017-07-29T16:35:34.314Z,100594.69
2017-07-29T16:38:02.235Z,100595.00
2017-07-29T16:40:30.146Z,100589.05
2017-07-29T16:42:58.063Z,100583.90
2017-07-29T16:45:26.308Z,100586.04
2017-07-29T16:47:54.224Z,100579.54
2017-07-29T16:50:22.140Z,100582.81
2017-07-29T16:52:50.071Z,100592.98
2017-07-29T16:55:17.977Z,100586.80
2017-07-29T16:57:46.392Z,100584.12
2017-07-29T17:00:14.299Z,100588.78
2017-07-29T17:02:42.226Z,100587.52
2017-07-29T17:05:10.139Z,100587.47
2017-07-29T17:07:38.066Z,100583.36
2017-07-29T17:10:06.014Z,100583.20
2017-07-29T17:12:33.922Z,100591.25
2017-07-29T17:15:01.935Z,100589.66
2017-07-29T17:17:29.859Z,100591.44
2017-07-29T17:19:57.766Z,100593.50
2017-07-29T17:22:25.761Z,100594.72
2017-07-29T17:24:54.065Z,100601.88
2017-07-29T17:27:21.986Z,100601.95
2017-07-29T17:29:49.916Z,100606.86
2017-07-29T17:32:18.031Z,100609.47
2017-07-29T17:34:45.944Z,100601.22
2017-07-29T17:37:13.847Z,100600.53
2017-07-29T17:39:41.775Z,100606.97
2017-07-29T17:42:09.677Z,100597.31
2017-07-29T17:44:37.599Z,100604.34
2017-07-29T17:47:05.916Z,100602.23
2017-07-29T17:49:33.843Z,100604.05
2017-07-29T17:52:02.160Z,100602.71
2017-07-29T17:54:30.316Z,100600.11
2017-07-29T17:56:58.223Z,100603.81
2017-07-29T17:59:26.335Z,100602.26
2017-07-29T18:01:54.647Z,100607.35
2017-07-29T18:04:22.571Z,100605.69
2017-07-29T18:06:50.492Z,100603.84
2017-07-29T18:09:18.388Z,100608.94
2017-07-29T18:11:46.339Z,100603.47
2017-07-29T18:14:14.246Z,100599.78
2017-07-29T18:16:42.178Z,100603.51
2017-07-29T18:19:10.115Z,100596.83
2017-07-29T18:21:38.057Z,100595.53
2017-07-29T18:24:05.958Z,100595.39
2017-07-29T18:26:33.870Z,100592.20
2017-07-29T18:29:02.097Z,100594.80
2017-07-29T18:31:30.348Z,100585.33
2017-07-29T18:33:58.655Z,100600.64
2017-07-29T18:36:26.572Z,100599.63
2017-07-29T18:38:54.536Z,100599.55
2017-07-29T18:41:22.492Z,100599.67
2017-07-29T18:43:50.463Z,100601.41
2017-07-29T18:46:18.428Z,100600.58
2017-07-29T18:48:46.365Z,100609.03
2017-07-29T18:51:14.685Z,100605.89
2017-07-29T18:53:42.602Z,100607.63
2017-07-29T18:56:10.945Z,100607.78
2017-07-29T18:58:38.863Z,100611.24
2017-07-29T19:01:06.850Z,100610.26
2017-07-29T19:03:34.767Z,100612.69
2017-07-29T19:06:02.685Z,100612.61
2017-07-29T19:08:30.615Z,100616.87
2017-07-29T19:10:58.545Z,100619.30
2017-07-29T19:13:26.477Z,100618.82
2017-07-29T19:15:54.411Z,100619.20
2017-07-29T19:18:22.326Z,100616.61
2017-07-29T19:20:50.237Z,100620.07
2017-07-29T19:23:18.157Z,100629.25
2017-07-29T19:25:46.073Z,100632.08
2017-07-29T19:28:14.015Z,100633.71
2017-07-29T19:30:42.060Z,100627.59
2017-07-29T19:33:10.389Z,100626.82
2017-07-29T19:35:38.320Z,100626.41
2017-07-29T19:38:06.267Z,100626.47
2017-07-29T19:40:34.588Z,100624.42
2017-07-29T19:43:02.513Z,100626.73
2017-07-29T19:45:30.444Z,100620.77
2017-07-29T19:47:58.353Z,100622.29
2017-07-29T19:50:26.673Z,100631.34
2017-07-29T19:52:54.609Z,100632.17
2017-07-29T19:55:23.381Z,100627.34
2017-07-29T19:57:51.710Z,100631.21
2017-07-29T20:00:19.729Z,100627.68
2017-07-29T20:02:48.056Z,100623.48
2017-07-29T20:05:15.973Z,100627.06
2017-07-29T20:07:44.306Z,100629.16
2017-07-29T20:10:12.232Z,100621.89
2017-07-29T20:12:40.642Z,100625.72
2017-07-29T20:15:08.673Z,100617.34
2017-07-29T20:17:37.355Z,100619.24
2017-07-29T20:20:05.290Z,100615.59
2017-07-29T20:22:33.296Z,100620.93
2017-07-29T20:25:01.223Z,100613.51
2017-07-29T20:27:29.147Z,100611.36
2017-07-29T20:29:57.079Z,100596.20
2017-07-29T20:32:24.995Z,100592.34
2017-07-29T20:34:53.323Z,100604.38
2017-07-29T20:37:21.250Z,100610.81
2017-07-29T20:39:49.381Z,100613.48
2017-07-29T20:42:17.307Z,100611.53
2017-07-29T20:44:45.215Z,100617.52
2017-07-29T20:47:13.160Z,100618.67
2017-07-29T20:49:41.069Z,100609.11
2017-07-29T20:52:09.001Z,100613.17
2017-07-29T20:54:36.912Z,100605.91
2017-07-29T20:57:05.242Z,100608.61
2017-07-29T20:59:33.161Z,100603.84
2017-07-29T21:02:01.840Z,100612.79
2017-07-29T21:04:29.983Z,100608.42
2017-07-29T21:06:57.905Z,100607.69
2017-07-29T21:09:26.222Z,100606.58
2017-07-29T21:11:54.140Z,100615.98
2017-07-29T21:14:22.496Z,100614.50
2017-07-29T21:16:50.415Z,100611.83
2017-07-29T21:19:18.650Z,100611.94
2017-07-29T21:21:46.558Z,100605.31
2017-07-29T21:24:14.477Z,100606.13
2017-07-29T21:26:42.403Z,100606.37
2017-07-29T21:29:10.315Z,100608.09
2017-07-29T21:31:38.263Z,100602.56
2017-07-29T21:34:06.182Z,100605.50
2017-07-29T21:36:34.515Z,100600.67
2017-07-29T21:39:02.429Z,100607.63
2017-07-29T21:41:30.900Z,100617.13
2017-07-29T21:43:58.808Z,100619.44
2017-07-29T21:46:26.724Z,100614.41
2017-07-29T21:48:54.646Z,100621.73
2017-07-29T21:51:22.579Z,100615.37
2017-07-29T21:53:50.891Z,100611.00
2017-07-29T21:56:18.810Z,100610.27
2017-07-29T21:58:46.724Z,100615.47
2017-07-29T22:01:14.638Z,100618.24
2017-07-29T22:03:42.729Z,100617.27
2017-07-29T22:06:10.640Z,100615.09
2017-07-29T22:08:38.558Z,100624.07
2017-07-29T22:11:06.523Z,100617.85
2017-07-29T22:13:34.442Z,100618.75
2017-07-29T22:16:02.374Z,100628.48
2017-07-29T22:18:30.281Z,100623.73
2017-07-29T22:20:58.415Z,100625.70
2017-07-29T22:23:26.340Z,100621.95
2017-07-29T22:25:54.253Z,100625.52
2017-07-29T22:28:22.176Z,100624.98
2017-07-29T22:30:50.101Z,100627.72
2017-07-29T22:33:18.426Z,100623.25
2017-07-29T22:35:46.362Z,100620.52
2017-07-29T22:38:14.811Z,100621.98
2017-07-29T22:40:42.729Z,100614.08
2017-07-29T22:43:10.631Z,100609.61
2017-07-29T22:45:38.565Z,100608.96
2017-07-29T22:48:06.481Z,100608.68
2017-07-29T22:50:34.576Z,100613.48
2017-07-29T22:53:02.898Z,100616.00
2017-07-29T22:55:30.811Z,100616.66
2017-07-29T22:57:58.736Z,100616.03
2017-07-29T23:00:26.644Z,100621.89
2017-07-29T23:02:54.579Z,100620.34
2017-07-29T23:05:22.492Z,100619.28
2017-07-29T23:07:50.421Z,100615.06
2017-07-29T23:10:18.354Z,100617.89
2017-07-29T23:12:46.275Z,100617.19
2017-07-29T23:15:14.215Z,100619.80
2017-07-29T23:17:42.141Z,100622.50
2017-07-29T23:20:10.469Z,100615.00
2017-07-29T23:22:38.413Z,100620.33
2017-07-29T23:25:06.328Z,100619.01
2017-07-29T23:27:34.429Z,100622.48
2017-07-29T23:30:02.344Z,100613.19
2017-07-29T23:32:30.280Z,100612.66
2017-07-29T23:34:58.608Z,100605.69
2017-07-29T23:37:26.515Z,100601.66
2017-07-29T23:39:54.851Z,100608.41
2017-07-29T23:42:22.773Z,100603.67
2017-07-29T23:44:51.204Z,100602.44
2017-07-29T23:47:19.117Z,100598.40
2017-07-29T23:49:47.417Z,100593.50
2017-07-29T23:52:15.345Z,100589.04
2017-07-29T23:54:43.259Z,100592.13
2017-07-29T23:57:11.184Z,100589.97
2017-07-29T23:59:39.092Z,100588.61
